createdAt,value
2023-02-18T00:00:46.369Z,99.46
2023-02-18T00:01:36.285Z,99.46
2023-02-18T00:02:26.341Z,99.26
2023-02-18T00:03:16.319Z,99.15
2023-02-18T00:04:06.250Z,99.05
2023-02-18T00:04:56.243Z,99.05
2023-02-18T00:05:46.231Z,98.85
2023-02-18T00:06:36.238Z,98.65
2023-02-18T00:07:26.210Z,98.44
2023-02-18T00:08:16.190Z,98.29
2023-02-18T00:09:06.212Z,98.19
2023-02-18T00:09:56.179Z,98.33
2023-02-18T00:10:46.169Z,98.13
2023-02-18T00:11:36.184Z,98.24
2023-02-18T00:12:26.159Z,98.33
2023-02-18T00:13:16.139Z,98.33
2023-02-18T00:14:06.148Z,98.44
2023-02-18T00:14:56.120Z,98.44
2023-02-18T00:15:46.159Z,98.44
2023-02-18T00:16:36.117Z,98.44
2023-02-18T00:17:26.099Z,98.33
2023-02-18T00:18:16.092Z,98.33
2023-02-18T00:19:06.077Z,98.24
2023-02-18T00:19:56.070Z,98.33
2023-02-18T00:20:46.058Z,98.33
2023-02-18T00:21:36.057Z,98.33
2023-02-18T00:22:26.038Z,98.33
2023-02-18T00:23:16.030Z,98.33
2023-02-18T00:24:06.027Z,98.33
2023-02-18T00:24:56.012Z,98.44
2023-02-18T00:25:45.998Z,98.44
2023-02-18T00:26:35.997Z,98.44
2023-02-18T00:27:25.978Z,98.44
2023-02-18T00:28:15.967Z,98.24
2023-02-18T00:29:05.969Z,98.13
2023-02-18T00:29:56.077Z,98.13
2023-02-18T00:30:45.964Z,98.13
2023-02-18T00:31:36.027Z,98.24
2023-02-18T00:32:25.927Z,98.24
2023-02-18T00:33:15.906Z,98.24
2023-02-18T00:34:05.909Z,98.24
2023-02-18T00:34:55.886Z,98.24
2023-02-18T00:35:45.887Z,98.13
2023-02-18T00:36:35.884Z,98.13
2023-02-18T00:37:25.867Z,98.13
2023-02-18T00:38:15.856Z,98.24
2023-02-18T00:39:05.845Z,98.03
2023-02-18T00:39:55.835Z,98.13
2023-02-18T00:40:45.832Z,98.13
2023-02-18T00:41:35.854Z,98.03
2023-02-18T00:42:25.808Z,97.88
2023-02-18T00:43:15.796Z,97.88
2023-02-18T00:44:05.806Z,97.78
2023-02-18T00:44:55.780Z,97.78
2023-02-18T00:45:45.775Z,97.57
2023-02-18T00:46:35.813Z,97.57
2023-02-18T00:47:25.753Z,97.57
2023-02-18T00:48:15.745Z,97.57
2023-02-18T00:49:05.765Z,97.67
2023-02-18T00:49:55.728Z,97.78
2023-02-18T00:50:45.715Z,97.57
2023-02-18T00:51:35.728Z,97.57
2023-02-18T00:52:25.697Z,97.62
2023-02-18T00:53:15.684Z,97.47
2023-02-18T00:54:05.678Z,97.27
2023-02-18T00:54:55.663Z,97.27
2023-02-18T00:55:45.665Z,97.27
2023-02-18T00:56:35.654Z,97.27
2023-02-18T00:57:25.635Z,97.27
2023-02-18T00:58:15.631Z,97.16
2023-02-18T00:59:05.633Z,97.16
2023-02-18T00:59:55.607Z,97.16
2023-02-18T01:00:45.604Z,97.16
2023-02-18T01:01:35.618Z,97.06
2023-02-18T01:02:25.574Z,97.06
2023-02-18T01:03:15.567Z,97.06
2023-02-18T01:04:05.558Z,97.06
2023-02-18T01:04:55.644Z,96.96
2023-02-18T01:05:45.553Z,96.96
2023-02-18T01:06:35.559Z,96.86
2023-02-18T01:07:25.518Z,96.80
2023-02-18T01:08:15.526Z,96.80
2023-02-18T01:09:05.515Z,96.80
2023-02-18T01:09:55.495Z,96.80
2023-02-18T01:10:45.484Z,96.70
2023-02-18T01:11:35.506Z,97.00
2023-02-18T01:12:25.469Z,97.11
2023-02-18T01:13:15.459Z,97.11
2023-02-18T01:14:05.450Z,97.11
2023-02-18T01:14:55.446Z,97.11
2023-02-18T01:15:45.474Z,97.11
2023-02-18T01:16:35.436Z,97.21
2023-02-18T01:17:25.410Z,97.31
2023-02-18T01:18:15.410Z,97.41
2023-02-18T01:19:05.396Z,97.31
2023-02-18T01:19:55.388Z,97.31
2023-02-18T01:20:45.364Z,97.21
2023-02-18T01:21:35.383Z,97.21
2023-02-18T01:22:25.348Z,97.31
2023-02-18T01:23:15.375Z,97.31
2023-02-18T01:24:05.336Z,97.41
2023-02-18T01:24:55.327Z,97.41
2023-02-18T01:25:45.363Z,97.31
2023-02-18T01:26:35.324Z,97.31
2023-02-18T01:27:25.298Z,97.31
2023-02-18T01:28:15.324Z,97.31
2023-02-18T01:29:05.280Z,97.31
2023-02-18T01:29:55.352Z,97.41
2023-02-18T01:30:45.258Z,97.31
2023-02-18T01:31:35.399Z,97.41
2023-02-18T01:32:25.237Z,97.41
2023-02-18T01:33:15.238Z,97.41
2023-02-18T01:34:05.217Z,97.41
2023-02-18T01:34:55.216Z,97.41
2023-02-18T01:35:45.197Z,97.41
2023-02-18T01:36:35.224Z,97.31
2023-02-18T01:37:25.174Z,97.31
2023-02-18T01:38:15.174Z,97.21
2023-02-18T01:39:05.162Z,97.25
2023-02-18T01:39:55.154Z,96.80
2023-02-18T01:40:45.142Z,96.59
2023-02-18T01:41:35.149Z,96.49
2023-02-18T01:42:25.121Z,96.49
2023-02-18T01:43:15.116Z,96.70
2023-02-18T01:44:05.102Z,96.59
2023-02-18T01:44:55.101Z,96.59
2023-02-18T01:45:45.084Z,96.59
2023-02-18T01:46:35.094Z,96.70
2023-02-18T01:47:25.057Z,96.70
2023-02-18T01:48:15.071Z,96.70
2023-02-18T01:49:05.049Z,96.80
2023-02-18T01:49:55.042Z,96.91
2023-02-18T01:50:45.021Z,96.91
2023-02-18T01:51:35.028Z,97.00
2023-02-18T01:52:25.007Z,97.25
2023-02-18T01:53:15.012Z,97.56
2023-02-18T01:54:04.993Z,97.56
2023-02-18T01:54:54.979Z,97.56
2023-02-18T01:55:44.968Z,97.56
2023-02-18T01:56:34.981Z,97.46
2023-02-18T01:57:24.971Z,97.36
2023-02-18T01:58:14.947Z,97.46
2023-02-18T01:59:04.951Z,97.46
2023-02-18T01:59:54.925Z,97.56
2023-02-18T02:00:44.939Z,97.66
2023-02-18T02:01:34.955Z,97.56
2023-02-18T02:02:24.895Z,97.56
2023-02-18T02:03:14.894Z,97.52
2023-02-18T02:04:04.880Z,97.46
2023-02-18T02:04:54.865Z,97.31
2023-02-18T02:05:44.878Z,97.21
2023-02-18T02:06:34.868Z,97.00
2023-02-18T02:07:24.853Z,97.11
2023-02-18T02:08:14.840Z,97.11
2023-02-18T02:09:04.816Z,97.11
2023-02-18T02:09:54.815Z,97.00
2023-02-18T02:10:44.809Z,97.11
2023-02-18T02:11:34.813Z,97.11
2023-02-18T02:12:24.787Z,97.11
2023-02-18T02:13:14.781Z,97.21
2023-02-18T02:14:04.775Z,97.21
2023-02-18T02:14:54.757Z,97.31
2023-02-18T02:15:44.745Z,97.31
2023-02-18T02:16:34.784Z,97.31
2023-02-18T02:17:24.724Z,97.41
2023-02-18T02:18:14.727Z,97.41
2023-02-18T02:19:04.707Z,97.41
2023-02-18T02:19:54.703Z,97.52
2023-02-18T02:20:44.683Z,97.52
2023-02-18T02:21:34.701Z,97.52
2023-02-18T02:22:24.673Z,97.62
2023-02-18T02:23:14.671Z,97.52
2023-02-18T02:24:04.661Z,97.41
2023-02-18T02:24:54.646Z,97.41
2023-02-18T02:25:44.638Z,97.31
2023-02-18T02:26:34.643Z,97.31
2023-02-18T02:27:24.623Z,97.31
2023-02-18T02:28:14.620Z,97.31
2023-02-18T02:29:04.593Z,97.41
2023-02-18T02:29:54.591Z,97.52
2023-02-18T02:30:44.631Z,97.52
2023-02-18T02:31:34.607Z,97.52
2023-02-18T02:32:24.558Z,97.41
2023-02-18T02:33:14.556Z,97.41
2023-02-18T02:34:04.544Z,97.41
2023-02-18T02:34:54.537Z,97.52
2023-02-18T02:35:44.529Z,97.52
2023-02-18T02:36:34.532Z,97.62
2023-02-18T02:37:24.502Z,97.62
2023-02-18T02:38:14.493Z,97.62
2023-02-18T02:39:04.483Z,97.62
2023-02-18T02:39:54.477Z,97.72
2023-02-18T02:40:44.468Z,97.72
2023-02-18T02:41:34.471Z,97.97
2023-02-18T02:42:24.453Z,98.07
2023-02-18T02:43:14.451Z,98.28
2023-02-18T02:44:04.424Z,98.38
2023-02-18T02:44:54.442Z,98.38
2023-02-18T02:45:44.460Z,98.38
2023-02-18T02:46:34.425Z,98.49
2023-02-18T02:47:24.392Z,98.49
2023-02-18T02:48:14.390Z,98.49
2023-02-18T02:49:04.374Z,98.49
2023-02-18T02:49:54.364Z,98.28
2023-02-18T02:50:44.356Z,98.18
2023-02-18T02:51:34.368Z,98.18
2023-02-18T02:52:24.334Z,98.28
2023-02-18T02:53:14.338Z,98.38
2023-02-18T02:54:04.314Z,98.28
2023-02-18T02:54:54.334Z,98.18
2023-02-18T02:55:44.303Z,97.97
2023-02-18T02:56:34.304Z,97.87
2023-02-18T02:57:24.284Z,97.87
2023-02-18T02:58:14.276Z,97.77
2023-02-18T02:59:04.275Z,97.66
2023-02-18T02:59:54.273Z,97.66
2023-02-18T03:00:44.364Z,97.66
2023-02-18T03:01:34.257Z,97.56
2023-02-18T03:02:24.233Z,97.66
2023-02-18T03:03:14.226Z,97.56
2023-02-18T03:04:04.210Z,97.46
2023-02-18T03:04:54.203Z,97.46
2023-02-18T03:05:44.184Z,97.46
2023-02-18T03:06:34.207Z,97.46
2023-02-18T03:07:24.174Z,97.46
2023-02-18T03:08:14.165Z,97.56
2023-02-18T03:09:04.158Z,97.46
2023-02-18T03:09:54.145Z,97.46
2023-02-18T03:10:44.138Z,97.36
2023-02-18T03:11:34.142Z,97.25
2023-02-18T03:12:24.113Z,97.25
2023-02-18T03:13:14.115Z,97.25
2023-02-18T03:14:04.098Z,97.25
2023-02-18T03:14:54.085Z,97.25
2023-02-18T03:15:44.074Z,97.46
2023-02-18T03:16:34.139Z,97.56
2023-02-18T03:17:24.055Z,97.66
2023-02-18T03:18:14.074Z,97.66
2023-02-18T03:19:04.044Z,97.56
2023-02-18T03:19:54.040Z,97.56
2023-02-18T03:20:44.022Z,97.46
2023-02-18T03:21:34.032Z,97.66
2023-02-18T03:22:24.006Z,97.56
2023-02-18T03:23:13.995Z,97.56
2023-02-18T03:24:03.989Z,97.46
2023-02-18T03:24:53.978Z,97.46
2023-02-18T03:25:43.962Z,97.56
2023-02-18T03:26:33.972Z,97.56
2023-02-18T03:27:23.950Z,97.46
2023-02-18T03:28:13.935Z,97.36
2023-02-18T03:29:03.929Z,97.25
2023-02-18T03:29:53.927Z,97.15
2023-02-18T03:30:43.903Z,97.00
2023-02-18T03:31:34.033Z,97.05
2023-02-18T03:32:23.991Z,97.15
2023-02-18T03:33:13.882Z,97.25
2023-02-18T03:34:03.863Z,97.25
2023-02-18T03:34:53.863Z,97.36
2023-02-18T03:35:43.862Z,97.36
2023-02-18T03:36:33.852Z,97.46
2023-02-18T03:37:23.852Z,97.31
2023-02-18T03:38:13.822Z,97.36
2023-02-18T03:39:03.823Z,97.25
2023-02-18T03:39:53.816Z,97.25
2023-02-18T03:40:43.791Z,97.25
2023-02-18T03:41:33.809Z,97.25
2023-02-18T03:42:23.773Z,97.25
2023-02-18T03:43:13.783Z,97.25
2023-02-18T03:44:03.761Z,97.36
2023-02-18T03:44:53.754Z,97.36
2023-02-18T03:45:43.770Z,97.36
2023-02-18T03:46:33.752Z,97.36
2023-02-18T03:47:23.737Z,97.36
2023-02-18T03:48:13.710Z,97.46
2023-02-18T03:49:03.701Z,97.36
2023-02-18T03:49:53.710Z,97.36
2023-02-18T03:50:43.683Z,97.25
2023-02-18T03:51:33.692Z,97.15
2023-02-18T03:52:23.661Z,97.11
2023-02-18T03:53:13.661Z,97.00
2023-02-18T03:54:03.644Z,97.00
2023-02-18T03:54:53.651Z,96.91
2023-02-18T03:55:43.628Z,96.80
2023-02-18T03:56:33.628Z,96.91
2023-02-18T03:57:23.609Z,97.15
2023-02-18T03:58:13.601Z,97.15
2023-02-18T03:59:03.591Z,97.15
2023-02-18T03:59:53.579Z,97.25
2023-02-18T04:00:43.569Z,97.25
2023-02-18T04:01:33.623Z,97.36
2023-02-18T04:02:23.545Z,97.36
2023-02-18T04:03:13.544Z,97.56
2023-02-18T04:04:03.579Z,97.56
2023-02-18T04:04:53.534Z,97.46
2023-02-18T04:05:43.514Z,97.46
2023-02-18T04:06:33.513Z,97.46
2023-02-18T04:07:23.499Z,97.46
2023-02-18T04:08:13.493Z,97.66
2023-02-18T04:09:03.463Z,97.77
2023-02-18T04:09:53.465Z,97.77
2023-02-18T04:10:43.443Z,97.77
2023-02-18T04:11:33.476Z,97.77
2023-02-18T04:12:24.388Z,97.77
2023-02-18T04:13:13.422Z,97.66
2023-02-18T04:14:03.423Z,97.77
2023-02-18T04:14:53.403Z,97.77
2023-02-18T04:15:43.399Z,97.66
2023-02-18T04:16:33.461Z,97.56
2023-02-18T04:17:23.371Z,97.56
2023-02-18T04:18:13.374Z,97.56
2023-02-18T04:19:03.350Z,97.66
2023-02-18T04:19:53.350Z,97.77
2023-02-18T04:20:43.333Z,97.77
2023-02-18T04:21:33.363Z,97.77
2023-02-18T04:22:23.312Z,97.66
2023-02-18T04:23:13.310Z,97.66
2023-02-18T04:24:03.303Z,97.77
2023-02-18T04:24:53.293Z,97.66
2023-02-18T04:25:43.280Z,97.66
2023-02-18T04:26:33.290Z,97.56
2023-02-18T04:27:23.259Z,97.46
2023-02-18T04:28:13.258Z,97.46
2023-02-18T04:29:03.241Z,97.36
2023-02-18T04:29:53.229Z,97.36
2023-02-18T04:30:43.348Z,97.36
2023-02-18T04:31:33.282Z,97.36
2023-02-18T04:32:23.208Z,97.36
2023-02-18T04:33:13.199Z,97.46
2023-02-18T04:34:03.181Z,97.46
2023-02-18T04:34:53.169Z,97.46
2023-02-18T04:35:43.184Z,97.46
2023-02-18T04:36:33.169Z,97.46
2023-02-18T04:37:23.158Z,97.46
2023-02-18T04:38:13.145Z,97.25
2023-02-18T04:39:03.135Z,97.15
2023-02-18T04:39:53.124Z,97.05
2023-02-18T04:40:43.110Z,97.05
2023-02-18T04:41:33.117Z,97.05
2023-02-18T04:42:23.102Z,97.05
2023-02-18T04:43:13.079Z,97.05
2023-02-18T04:44:03.076Z,96.95
2023-02-18T04:44:53.059Z,96.95
2023-02-18T04:45:43.059Z,96.95
2023-02-18T04:46:33.087Z,96.95
2023-02-18T04:47:23.038Z,96.95
2023-02-18T04:48:13.030Z,96.95
2023-02-18T04:49:03.020Z,96.95
2023-02-18T04:49:53.009Z,96.95
2023-02-18T04:50:42.998Z,96.95
2023-02-18T04:51:33.008Z,97.05
2023-02-18T04:52:22.986Z,97.36
2023-02-18T04:53:12.970Z,97.36
2023-02-18T04:54:02.967Z,97.25
2023-02-18T04:54:52.952Z,97.05
2023-02-18T04:55:42.954Z,97.05
2023-02-18T04:56:32.948Z,96.95
2023-02-18T04:57:22.926Z,96.74
2023-02-18T04:58:12.907Z,96.64
2023-02-18T04:59:02.913Z,96.64
2023-02-18T04:59:52.895Z,96.64
2023-02-18T05:00:42.888Z,96.74
2023-02-18T05:01:32.912Z,96.74
2023-02-18T05:02:22.868Z,96.84
2023-02-18T05:03:12.863Z,96.95
2023-02-18T05:04:02.900Z,97.05
2023-02-18T05:04:52.848Z,97.05
2023-02-18T05:05:42.830Z,97.15
2023-02-18T05:06:32.839Z,97.25
2023-02-18T05:07:22.820Z,97.25
2023-02-18T05:08:12.809Z,97.25
2023-02-18T05:09:02.790Z,97.25
2023-02-18T05:09:52.783Z,97.15
2023-02-18T05:10:42.780Z,97.05
2023-02-18T05:11:32.783Z,97.05
2023-02-18T05:12:22.760Z,97.05
2023-02-18T05:13:12.746Z,96.95
2023-02-18T05:14:02.741Z,96.74
2023-02-18T05:14:52.732Z,96.74
2023-02-18T05:15:42.760Z,96.74
2023-02-18T05:16:32.721Z,96.74
2023-02-18T05:17:22.703Z,96.84
2023-02-18T05:18:12.692Z,96.74
2023-02-18T05:19:02.686Z,96.64
2023-02-18T05:19:52.673Z,96.64
2023-02-18T05:20:42.671Z,96.64
2023-02-18T05:21:32.666Z,96.64
2023-02-18T05:22:22.649Z,96.59
2023-02-18T05:23:12.665Z,96.59
2023-02-18T05:24:02.634Z,96.59
2023-02-18T05:24:52.622Z,96.29
2023-02-18T05:25:42.618Z,95.88
2023-02-18T05:26:32.615Z,95.67
2023-02-18T05:27:22.599Z,95.43
2023-02-18T05:28:12.583Z,95.53
2023-02-18T05:29:02.573Z,95.53
2023-02-18T05:29:52.563Z,95.53
2023-02-18T05:30:42.578Z,95.67
2023-02-18T05:31:32.667Z,95.67
2023-02-18T05:32:22.545Z,95.32
2023-02-18T05:33:12.524Z,95.22
2023-02-18T05:34:02.510Z,95.02
2023-02-18T05:34:52.501Z,95.12
2023-02-18T05:35:42.505Z,94.60
2023-02-18T05:36:32.498Z,94.51
2023-02-18T05:37:22.480Z,94.51
2023-02-18T05:38:12.469Z,94.40
2023-02-18T05:39:02.460Z,94.06
2023-02-18T05:39:52.451Z,94.06
2023-02-18T05:40:42.442Z,94.06
2023-02-18T05:41:32.459Z,94.06
2023-02-18T05:42:22.428Z,94.06
2023-02-18T05:43:12.410Z,93.95
2023-02-18T05:44:02.420Z,93.95
2023-02-18T05:44:52.389Z,94.06
2023-02-18T05:45:42.400Z,94.15
2023-02-18T05:46:32.413Z,94.30
2023-02-18T05:47:22.370Z,94.20
2023-02-18T05:48:12.348Z,94.30
2023-02-18T05:49:02.348Z,94.30
2023-02-18T05:49:52.327Z,94.30
2023-02-18T05:50:42.330Z,94.30
2023-02-18T05:51:32.336Z,93.99
2023-02-18T05:52:22.306Z,93.79
2023-02-18T05:53:12.298Z,93.69
2023-02-18T05:54:02.301Z,93.59
2023-02-18T05:54:52.276Z,93.48
2023-02-18T05:55:42.276Z,93.69
2023-02-18T05:56:32.268Z,93.69
2023-02-18T05:57:22.254Z,93.69
2023-02-18T05:58:12.240Z,93.79
2023-02-18T05:59:02.240Z,93.54
2023-02-18T05:59:52.216Z,93.44
2023-02-18T06:00:42.207Z,93.44
2023-02-18T06:01:32.216Z,93.44
2023-02-18T06:02:22.224Z,93.54
2023-02-18T06:03:12.180Z,93.69
2023-02-18T06:04:02.176Z,93.79
2023-02-18T06:04:52.165Z,93.89
2023-02-18T06:05:42.167Z,93.99
2023-02-18T06:06:32.171Z,93.99
2023-02-18T06:07:22.138Z,93.99
2023-02-18T06:08:12.131Z,94.10
2023-02-18T06:09:02.116Z,94.10
2023-02-18T06:09:52.105Z,93.89
2023-02-18T06:10:42.103Z,93.79
2023-02-18T06:11:32.098Z,93.69
2023-02-18T06:12:22.084Z,93.48
2023-02-18T06:13:12.090Z,93.48
2023-02-18T06:14:02.065Z,93.48
2023-02-18T06:14:52.044Z,93.59
2023-02-18T06:15:42.046Z,93.48
2023-02-18T06:16:32.088Z,93.48
2023-02-18T06:17:22.033Z,93.59
2023-02-18T06:18:12.020Z,93.59
2023-02-18T06:19:02.007Z,93.69
2023-02-18T06:19:51.994Z,93.59
2023-02-18T06:20:41.996Z,93.69
2023-02-18T06:21:31.996Z,93.79
2023-02-18T06:22:21.967Z,93.59
2023-02-18T06:23:11.954Z,93.38
2023-02-18T06:24:01.944Z,93.13
2023-02-18T06:24:51.934Z,93.13
2023-02-18T06:25:41.930Z,93.03
2023-02-18T06:26:31.933Z,92.93
2023-02-18T06:27:21.913Z,92.93
2023-02-18T06:28:11.905Z,92.83
2023-02-18T06:29:01.897Z,92.83
2023-02-18T06:29:51.891Z,92.83
2023-02-18T06:30:41.877Z,92.93
2023-02-18T06:31:31.964Z,92.93
2023-02-18T06:32:22.005Z,92.87
2023-02-18T06:33:11.845Z,92.77
2023-02-18T06:34:01.839Z,92.77
2023-02-18T06:34:51.822Z,92.66
2023-02-18T06:37:56.953Z,92.87
2023-02-18T06:38:46.949Z,92.97
2023-02-18T06:39:36.922Z,92.97
2023-02-18T06:40:26.930Z,92.97
2023-02-18T06:41:16.929Z,92.97
2023-02-18T06:42:06.909Z,92.97
2023-02-18T06:42:56.900Z,92.87
2023-02-18T06:43:46.871Z,92.87
2023-02-18T06:44:38.020Z,92.77
2023-02-18T06:45:26.867Z,92.66
2023-02-18T06:46:16.874Z,92.66
2023-02-18T06:47:06.857Z,92.56
2023-02-18T06:47:56.835Z,92.77
2023-02-18T06:48:46.814Z,92.56
2023-02-18T06:49:36.815Z,92.46
2023-02-18T06:50:26.796Z,92.46
2023-02-18T06:51:16.831Z,92.36
2023-02-18T06:52:06.814Z,92.25
2023-02-18T06:52:56.786Z,92.25
2023-02-18T06:53:46.782Z,92.25
2023-02-18T06:54:36.746Z,92.05
2023-02-18T06:55:26.765Z,92.15
2023-02-18T06:56:16.744Z,92.15
2023-02-18T06:57:06.723Z,92.15
2023-02-18T06:57:56.718Z,92.05
2023-02-18T06:58:46.734Z,91.95
2023-02-18T06:59:36.704Z,92.05
2023-02-18T07:00:26.811Z,91.85
2023-02-18T07:01:16.796Z,91.95
2023-02-18T07:02:06.686Z,91.85
2023-02-18T07:02:56.654Z,91.64
2023-02-18T07:03:49.734Z,91.54
2023-02-18T07:04:36.661Z,91.29
2023-02-18T07:05:26.625Z,91.39
2023-02-18T07:06:16.648Z,91.29
2023-02-18T07:07:06.626Z,91.39
2023-02-18T07:07:56.590Z,91.39
2023-02-18T07:08:46.617Z,91.39
2023-02-18T07:09:36.584Z,91.39
2023-02-18T07:10:26.583Z,91.74
2023-02-18T07:11:16.567Z,91.85
2023-02-18T07:12:06.564Z,91.95
2023-02-18T07:12:56.552Z,92.15
2023-02-18T07:13:46.533Z,92.15
2023-02-18T07:14:36.541Z,92.25
2023-02-18T07:15:26.537Z,92.25
2023-02-18T07:16:16.539Z,92.36
2023-02-18T07:17:06.532Z,92.46
2023-02-18T07:17:56.488Z,92.56
2023-02-18T07:18:46.518Z,92.46
2023-02-18T07:19:36.464Z,92.56
2023-02-18T07:20:26.480Z,92.56
2023-02-18T07:21:16.453Z,92.66
2023-02-18T07:22:06.459Z,92.56
2023-02-18T07:22:56.432Z,92.56
2023-02-18T07:23:46.436Z,92.46
2023-02-18T07:24:36.427Z,92.36
2023-02-18T07:25:26.429Z,92.05
2023-02-18T07:26:16.398Z,92.05
2023-02-18T07:27:06.544Z,92.15
2023-02-18T07:27:56.371Z,92.05
2023-02-18T07:28:46.374Z,92.15
2023-02-18T07:29:36.371Z,92.25
2023-02-18T07:30:26.425Z,92.66
2023-02-18T07:31:16.402Z,92.56
2023-02-18T07:32:06.377Z,92.36
2023-02-18T07:32:56.330Z,92.36
2023-02-18T07:33:46.320Z,92.36
2023-02-18T07:34:36.323Z,92.46
2023-02-18T07:35:26.323Z,92.36
2023-02-18T07:36:16.279Z,92.46
2023-02-18T07:37:06.303Z,92.36
2023-02-18T07:37:56.261Z,92.46
2023-02-18T07:38:46.264Z,92.46
2023-02-18T07:39:36.250Z,92.66
2023-02-18T07:40:26.249Z,92.56
2023-02-18T07:41:16.241Z,92.32
2023-02-18T07:42:06.222Z,92.32
2023-02-18T07:42:56.210Z,92.01
2023-02-18T07:43:46.217Z,92.11
2023-02-18T07:44:36.177Z,92.01
2023-02-18T07:45:26.252Z,92.11
2023-02-18T07:46:16.209Z,92.32
2023-02-18T07:47:06.176Z,92.21
2023-02-18T07:47:56.157Z,92.21
2023-02-18T07:48:46.165Z,92.21
2023-02-18T07:49:36.132Z,92.32
2023-02-18T07:50:26.130Z,92.11
2023-02-18T07:51:16.145Z,92.01
2023-02-18T07:52:06.115Z,92.21
2023-02-18T07:52:56.110Z,92.21
2023-02-18T07:53:46.097Z,92.11
2023-02-18T07:54:36.102Z,92.11
2023-02-18T07:55:26.080Z,92.21
2023-02-18T07:56:16.067Z,92.11
2023-02-18T07:57:06.071Z,92.01
2023-02-18T07:57:56.041Z,92.11
2023-02-18T07:58:46.042Z,92.01
2023-02-18T07:59:36.019Z,91.91
2023-02-18T08:00:26.030Z,91.76
2023-02-18T08:01:16.013Z,91.86
2023-02-18T08:02:06.022Z,91.96
2023-02-18T08:02:55.988Z,91.86
2023-02-18T08:03:46.074Z,91.86
2023-02-18T08:04:35.980Z,91.96
2023-02-18T08:05:25.979Z,92.07
2023-02-18T08:06:15.948Z,91.76
2023-02-18T08:07:05.951Z,91.56
2023-02-18T08:07:55.952Z,91.25
2023-02-18T08:08:45.926Z,91.25
2023-02-18T08:09:35.910Z,91.15
2023-02-18T08:10:25.901Z,91.25
2023-02-18T08:11:19.533Z,91.25
2023-02-18T08:12:05.887Z,91.35
2023-02-18T08:12:55.894Z,91.46
2023-02-18T08:13:47.197Z,91.56
2023-02-18T08:14:35.838Z,91.56
2023-02-18T08:15:25.864Z,91.66
2023-02-18T08:16:15.892Z,91.76
2023-02-18T08:17:05.860Z,91.86
2023-02-18T08:17:55.821Z,91.86
2023-02-18T08:18:45.807Z,91.96
2023-02-18T08:19:35.814Z,91.96
2023-02-18T08:20:25.818Z,92.17
2023-02-18T08:21:15.801Z,92.17
2023-02-18T08:22:05.805Z,92.17
2023-02-18T08:22:55.771Z,92.17
2023-02-18T08:23:45.770Z,91.86
2023-02-18T08:24:35.745Z,91.76
2023-02-18T08:25:29.671Z,91.76
2023-02-18T08:26:15.728Z,91.76
2023-02-18T08:27:05.726Z,91.66
2023-02-18T08:27:55.721Z,91.86
2023-02-18T08:28:45.713Z,91.56
2023-02-18T08:29:35.706Z,91.46
2023-02-18T08:30:25.802Z,91.56
2023-02-18T08:31:16.053Z,91.35
2023-02-18T08:32:05.730Z,91.25
2023-02-18T08:32:55.653Z,91.25
2023-02-18T08:33:45.632Z,91.35
2023-02-18T08:34:35.642Z,91.35
2023-02-18T08:35:25.621Z,91.25
2023-02-18T08:36:15.632Z,91.25
2023-02-18T08:37:05.620Z,91.35
2023-02-18T08:37:56.638Z,91.56
2023-02-18T08:38:45.581Z,91.15
2023-02-18T08:39:35.603Z,91.05
2023-02-18T08:40:25.626Z,91.05
2023-02-18T08:41:15.582Z,91.25
2023-02-18T08:42:05.588Z,91.46
2023-02-18T08:42:55.540Z,91.56
2023-02-18T08:43:45.530Z,91.25
2023-02-18T08:44:35.521Z,91.25
2023-02-18T08:45:25.522Z,91.15
2023-02-18T08:46:25.139Z,91.35
2023-02-18T08:48:17.284Z,91.15
2023-02-18T08:48:19.883Z,90.94
2023-02-18T08:48:46.482Z,90.94
2023-02-18T08:49:35.481Z,91.15
2023-02-18T08:50:25.450Z,91.15
2023-02-18T08:51:15.466Z,91.05
2023-02-18T08:52:05.449Z,90.94
2023-02-18T08:52:55.437Z,90.84
2023-02-18T08:53:45.411Z,90.70
2023-02-18T08:54:35.433Z,90.80
2023-02-18T08:55:25.390Z,90.80
2023-02-18T08:56:15.389Z,90.70
2023-02-18T08:57:05.402Z,90.59
2023-02-18T08:57:55.371Z,90.59
2023-02-18T08:58:45.378Z,90.49
2023-02-18T08:59:35.356Z,90.39
2023-02-18T09:00:25.335Z,90.80
2023-02-18T09:01:15.383Z,90.70
2023-02-18T09:02:05.330Z,90.80
2023-02-18T09:02:55.328Z,90.80
2023-02-18T09:03:45.328Z,90.80
2023-02-18T09:04:35.288Z,90.49
2023-02-18T09:05:25.298Z,90.39
2023-02-18T09:06:15.282Z,90.59
2023-02-18T09:07:05.278Z,90.49
2023-02-18T09:07:55.268Z,90.29
2023-02-18T09:08:45.250Z,90.49
2023-02-18T09:09:35.261Z,90.70
2023-02-18T09:10:25.231Z,90.70
2023-02-18T09:11:15.241Z,90.49
2023-02-18T09:12:05.227Z,90.59
2023-02-18T09:12:55.190Z,90.49
2023-02-18T09:13:45.191Z,90.29
2023-02-18T09:14:35.195Z,90.19
2023-02-18T09:15:25.239Z,90.29
2023-02-18T09:16:15.168Z,90.19
2023-02-18T09:17:05.170Z,90.08
2023-02-18T09:17:55.163Z,90.19
2023-02-18T09:18:45.141Z,90.19
2023-02-18T09:19:35.144Z,90.29
2023-02-18T09:20:25.129Z,90.49
2023-02-18T09:21:15.104Z,90.29
2023-02-18T09:22:05.105Z,90.59
2023-02-18T09:22:55.115Z,90.29
2023-02-18T09:23:45.094Z,90.29
2023-02-18T09:24:35.082Z,90.29
2023-02-18T09:25:25.060Z,90.08
2023-02-18T09:26:15.059Z,89.78
2023-02-18T09:27:05.051Z,89.78
2023-02-18T09:27:55.030Z,89.58
2023-02-18T09:28:45.024Z,89.58
2023-02-18T09:29:35.010Z,89.67
2023-02-18T09:30:25.068Z,89.67
2023-02-18T09:31:15.182Z,89.78
2023-02-18T09:32:05.037Z,89.88
2023-02-18T09:32:54.984Z,89.78
2023-02-18T09:33:45.984Z,89.88
2023-02-18T09:34:34.962Z,90.08
2023-02-18T09:35:24.950Z,89.98
2023-02-18T09:36:14.957Z,90.19
2023-02-18T09:37:04.929Z,90.19
2023-02-18T09:37:54.945Z,90.29
2023-02-18T09:38:44.942Z,90.39
2023-02-18T09:39:34.889Z,90.08
2023-02-18T09:40:24.879Z,90.29
2023-02-18T09:41:14.881Z,89.88
2023-02-18T09:42:04.878Z,89.88
2023-02-18T09:42:54.868Z,90.08
2023-02-18T09:43:44.844Z,90.29
2023-02-18T09:44:34.837Z,90.19
2023-02-18T09:45:24.837Z,90.49
2023-02-18T09:46:14.883Z,90.70
2023-02-18T09:47:04.824Z,90.59
2023-02-18T09:47:54.824Z,90.59
2023-02-18T09:48:44.786Z,90.39
2023-02-18T09:49:34.778Z,90.49
2023-02-18T09:50:24.779Z,90.39
2023-02-18T09:51:14.761Z,90.39
2023-02-18T09:52:04.776Z,90.08
2023-02-18T09:52:54.735Z,90.19
2023-02-18T09:53:44.729Z,89.98
2023-02-18T09:54:34.748Z,90.08
2023-02-18T09:55:24.729Z,90.29
2023-02-18T09:56:14.707Z,90.19
2023-02-18T09:57:04.728Z,89.88
2023-02-18T09:57:54.705Z,89.98
2023-02-18T09:58:44.674Z,90.19
2023-02-18T09:59:34.698Z,89.88
2023-02-18T10:00:24.680Z,89.78
2023-02-18T10:01:14.733Z,89.88
2023-02-18T10:02:04.654Z,89.98
2023-02-18T10:02:54.651Z,89.98
2023-02-18T10:03:44.634Z,89.88
2023-02-18T10:04:34.624Z,90.08
2023-02-18T10:05:24.612Z,90.19
2023-02-18T10:06:14.633Z,90.19
2023-02-18T10:07:04.617Z,90.19
2023-02-18T10:07:54.580Z,90.29
2023-02-18T10:08:44.582Z,89.98
2023-02-18T10:09:34.595Z,90.08
2023-02-18T10:10:24.568Z,89.98
2023-02-18T10:11:14.547Z,89.98
2023-02-18T10:12:04.548Z,89.58
2023-02-18T10:12:54.548Z,89.88
2023-02-18T10:13:44.561Z,89.78
2023-02-18T10:14:34.516Z,89.78
2023-02-18T10:15:24.514Z,89.67
2023-02-18T10:16:14.548Z,89.47
2023-02-18T10:17:04.496Z,89.37
2023-02-18T10:17:54.483Z,89.37
2023-02-18T10:18:44.465Z,88.85
2023-02-18T10:19:34.473Z,88.61
2023-02-18T10:20:24.445Z,87.79
2023-02-18T10:21:14.441Z,88.00
2023-02-18T10:22:04.430Z,88.41
2023-02-18T10:22:54.408Z,88.71
2023-02-18T10:23:44.416Z,88.61
2023-02-18T10:24:34.418Z,88.41
2023-02-18T10:25:24.374Z,88.31
2023-02-18T10:26:14.395Z,88.51
2023-02-18T10:27:04.378Z,88.31
2023-02-18T10:27:54.361Z,88.61
2023-02-18T10:28:44.339Z,88.82
2023-02-18T10:29:34.344Z,88.61
2023-02-18T10:30:24.441Z,88.71
2023-02-18T10:31:14.391Z,88.71
2023-02-18T10:32:04.364Z,88.20
2023-02-18T10:32:54.319Z,88.10
2023-02-18T10:33:44.277Z,87.90
2023-02-18T10:34:34.277Z,88.10
2023-02-18T10:35:24.278Z,87.76
2023-02-18T10:36:14.253Z,87.65
2023-02-18T10:37:04.245Z,88.37
2023-02-18T10:37:54.241Z,87.55
2023-02-18T10:38:44.248Z,87.14
2023-02-18T10:39:34.227Z,87.24
2023-02-18T10:40:24.218Z,87.55
2023-02-18T10:41:14.213Z,87.45
2023-02-18T10:42:04.193Z,87.04
2023-02-18T10:42:54.197Z,86.73
2023-02-18T10:43:44.187Z,86.63
2023-02-18T10:44:34.190Z,86.63
2023-02-18T10:45:24.156Z,86.83
2023-02-18T10:46:14.265Z,86.83